sensor_id;sensor_type;location;lat;lon;timestamp;pressure;altitude;pressure_sealevel;temperature;humidity
71457;BME280;59263;48.160;11.752;2023-04-16T00:01:23;95666.16;;;5.51;100.00
71457;BME280;59263;48.160;11.752;2023-04-16T00:03:48;95667.22;;;5.49;100.00
71457;BME280;59263;48.160;11.752;2023-04-16T00:06:13;95663.94;;;5.47;100.00
71457;BME280;59263;48.160;11.752;2023-04-16T00:08:38;95661.50;;;5.45;100.00
71457;BME280;59263;48.160;11.752;2023-04-16T00:11:05;95671.28;;;5.51;100.00
71457;BME280;59263;48.160;11.752;2023-04-16T00:13:31;95664.75;;;5.47;100.00
71457;BME280;59263;48.160;11.752;2023-04-16T00:15:56;95666.16;;;5.51;100.00
71457;BME280;59263;48.160;11.752;2023-04-16T00:18:21;95667.75;;;5.52;100.00
71457;BME280;59263;48.160;11.752;2023-04-16T00:20:47;95669.66;;;5.50;100.00
71457;BME280;59263;48.160;11.752;2023-04-16T00:23:12;95660.06;;;5.41;100.00
71457;BME280;59263;48.160;11.752;2023-04-16T00:25:38;95668.25;;;5.46;100.00
71457;BME280;59263;48.160;11.752;2023-04-16T00:28:04;95670.09;;;5.44;100.00
71457;BME280;59263;48.160;11.752;2023-04-16T00:30:29;95672.44;;;5.47;100.00
71457;BME280;59263;48.160;11.752;2023-04-16T00:32:55;95655.03;;;5.28;100.00
71457;BME280;59263;48.160;11.752;2023-04-16T00:35:20;95666.16;;;5.51;100.00
71457;BME280;59263;48.160;11.752;2023-04-16T00:37:45;95668.25;;;5.46;100.00
71457;BME280;59263;48.160;11.752;2023-04-16T00:40:11;95668.34;;;5.45;100.00
71457;BME280;59263;48.160;11.752;2023-04-16T00:42:36;95651.22;;;5.34;100.00
71457;BME280;59263;48.160;11.752;2023-04-16T00:45:03;95646.78;;;5.36;100.00
71457;BME280;59263;48.160;11.752;2023-04-16T00:47:29;95661.94;;;5.39;100.00
71457;BME280;59263;48.160;11.752;2023-04-16T00:49:55;95658.56;;;5.39;100.00
71457;BME280;59263;48.160;11.752;2023-04-16T00:52:20;95668.94;;;5.48;100.00
71457;BME280;59263;48.160;11.752;2023-04-16T00:54:45;95658.22;;;5.43;100.00
71457;BME280;59263;48.160;11.752;2023-04-16T00:57:13;95671.88;;;5.55;100.00
71457;BME280;59263;48.160;11.752;2023-04-16T00:59:40;95649.34;;;5.47;100.00
71457;BME280;59263;48.160;11.752;2023-04-16T01:02:05;95662.41;;;5.55;100.00
71457;BME280;59263;48.160;11.752;2023-04-16T01:04:31;95643.84;;;5.41;100.00
71457;BME280;59263;48.160;11.752;2023-04-16T01:06:58;95667.75;;;5.52;100.00
71457;BME280;59263;48.160;11.752;2023-04-16T01:09:23;95667.44;;;5.46;100.00
71457;BME280;59263;48.160;11.752;2023-04-16T01:11:49;95672.66;;;5.44;100.00
71457;BME280;59263;48.160;11.752;2023-04-16T01:14:14;95666.84;;;5.42;100.00
71457;BME280;59263;48.160;11.752;2023-04-16T01:16:39;95658.66;;;5.37;100.00
71457;BME280;59263;48.160;11.752;2023-04-16T01:19:05;95670.69;;;5.48;100.00
71457;BME280;59263;48.160;11.752;2023-04-16T01:21:30;95668.94;;;5.48;100.00
71457;BME280;59263;48.160;11.752;2023-04-16T01:23:56;95674.78;;;5.50;100.00
71457;BME280;59263;48.160;11.752;2023-04-16T01:26:21;95678.75;;;5.43;100.00
71457;BME280;59263;48.160;11.752;2023-04-16T01:28:47;95681.31;;;5.54;100.00
71457;BME280;59263;48.160;11.752;2023-04-16T01:31:12;95680.50;;;5.54;100.00
71457;BME280;59263;48.160;11.752;2023-04-16T01:33:37;95676.63;;;5.48;100.00
71457;BME280;59263;48.160;11.752;2023-04-16T01:36:03;95662.88;;;5.38;100.00
71457;BME280;59263;48.160;11.752;2023-04-16T01:38:28;95681.75;;;5.48;100.00
71457;BME280;59263;48.160;11.752;2023-04-16T01:40:56;95679.19;;;5.37;100.00
71457;BME280;59263;48.160;11.752;2023-04-16T01:43:23;95685.19;;;5.49;100.00
71457;BME280;59263;48.160;11.752;2023-04-16T01:45:49;95691.81;;;5.51;100.00
71457;BME280;59263;48.160;11.752;2023-04-16T01:48:14;95682.84;;;5.46;100.00
71457;BME280;59263;48.160;11.752;2023-04-16T01:50:40;95684.47;;;5.47;100.00
71457;BME280;59263;48.160;11.752;2023-04-16T01:53:05;95688.06;;;5.55;100.00
71457;BME280;59263;48.160;11.752;2023-04-16T01:55:32;95691.13;;;5.61;100.00
71457;BME280;59263;48.160;11.752;2023-04-16T01:57:58;95692.88;;;5.49;100.00
71457;BME280;59263;48.160;11.752;2023-04-16T02:00:23;95689.94;;;5.42;100.00
71457;BME280;59263;48.160;11.752;2023-04-16T02:02:50;95691.22;;;5.48;100.00
71457;BME280;59263;48.160;11.752;2023-04-16T02:05:15;95693.69;;;5.49;100.00
71457;BME280;59263;48.160;11.752;2023-04-16T02:07:40;95693.44;;;5.52;100.00
71457;BME280;59263;48.160;11.752;2023-04-16T02:10:06;95686.00;;;5.49;100.00
71457;BME280;59263;48.160;11.752;2023-04-16T02:12:32;95692.97;;;5.47;100.00
71457;BME280;59263;48.160;11.752;2023-04-16T02:14:58;95696.72;;;5.54;100.00
71457;BME280;59263;48.160;11.752;2023-04-16T02:17:24;95696.72;;;5.54;100.00
71457;BME280;59263;48.160;11.752;2023-04-16T02:19:49;95696.50;;;5.57;100.00
71457;BME280;59263;48.160;11.752;2023-04-16T02:22:14;95683.16;;;5.52;100.00
71457;BME280;59263;48.160;11.752;2023-04-16T02:24:40;95689.72;;;5.45;100.00
71457;BME280;59263;48.160;11.752;2023-04-16T02:27:05;95685.13;;;5.38;100.00
71457;BME280;59263;48.160;11.752;2023-04-16T02:29:30;95696.59;;;5.56;100.00
71457;BME280;59263;48.160;11.752;2023-04-16T02:31:56;95687.59;;;5.39;100.00
71457;BME280;59263;48.160;11.752;2023-04-16T02:34:21;95688.19;;;5.43;100.00
71457;BME280;59263;48.160;11.752;2023-04-16T02:36:46;95689.16;;;5.53;100.00
71457;BME280;59263;48.160;11.752;2023-04-16T02:39:12;95687.84;;;5.58;100.00
71457;BME280;59263;48.160;11.752;2023-04-16T02:41:37;95690.06;;;5.63;100.00
71457;BME280;59263;48.160;11.752;2023-04-16T02:44:02;95691.34;;;5.57;100.00
71457;BME280;59263;48.160;11.752;2023-04-16T02:46:28;95688.19;;;5.54;100.00
71457;BME280;59263;48.160;11.752;2023-04-16T02:48:53;95687.97;;;5.57;100.00
71457;BME280;59263;48.160;11.752;2023-04-16T02:51:18;95696.72;;;5.54;100.00
71457;BME280;59263;48.160;11.752;2023-04-16T02:53:43;95701.13;;;5.52;100.00
71457;BME280;59263;48.160;11.752;2023-04-16T02:56:10;95709.78;;;5.63;100.00
71457;BME280;59263;48.160;11.752;2023-04-16T02:58:35;95708.59;;;5.55;100.00
71457;BME280;59263;48.160;11.752;2023-04-16T03:01:01;95695.44;;;5.60;100.00
71457;BME280;59263;48.160;11.752;2023-04-16T03:03:26;95706.19;;;5.65;100.00
71457;BME280;59263;48.160;11.752;2023-04-16T03:05:51;95698.34;;;5.55;100.00
71457;BME280;59263;48.160;11.752;2023-04-16T03:08:16;95704.41;;;5.43;100.00
71457;BME280;59263;48.160;11.752;2023-04-16T03:10:42;95714.69;;;5.66;100.00
71457;BME280;59263;48.160;11.752;2023-04-16T03:13:07;95718.66;;;5.58;100.00
71457;BME280;59263;48.160;11.752;2023-04-16T03:15:32;95708.81;;;5.52;100.00
71457;BME280;59263;48.160;11.752;2023-04-16T03:17:58;95712.34;;;5.51;100.00
71457;BME280;59263;48.160;11.752;2023-04-16T03:20:24;95705.22;;;5.55;100.00
71457;BME280;59263;48.160;11.752;2023-04-16T03:22:50;95714.00;;;5.64;100.00
71457;BME280;59263;48.160;11.752;2023-04-16T03:25:16;95717.38;;;5.64;100.00
71457;BME280;59263;48.160;11.752;2023-04-16T03:27:42;95726.34;;;5.70;100.00
71457;BME280;59263;48.160;11.752;2023-04-16T03:30:10;95713.06;;;5.65;100.00
71457;BME280;59263;48.160;11.752;2023-04-16T03:32:35;95736.41;;;5.73;100.00
71457;BME280;59263;48.160;11.752;2023-04-16T03:35:02;95726.94;;;5.73;100.00
71457;BME280;59263;48.160;11.752;2023-04-16T03:37:27;95718.66;;;5.58;100.00
71457;BME280;59263;48.160;11.752;2023-04-16T03:39:53;95712.94;;;5.66;100.00
71457;BME280;59263;48.160;11.752;2023-04-16T03:42:18;95728.69;;;5.73;100.00
71457;BME280;59263;48.160;11.752;2023-04-16T03:44:43;95722.84;;;5.71;100.00
71457;BME280;59263;48.160;11.752;2023-04-16T03:47:08;95729.84;;;5.57;100.00
71457;BME280;59263;48.160;11.752;2023-04-16T03:49:34;95734.41;;;5.65;100.00
71457;BME280;59263;48.160;11.752;2023-04-16T03:51:59;95736.84;;;5.55;100.00
71457;BME280;59263;48.160;11.752;2023-04-16T03:54:25;95736.16;;;5.65;100.00
71457;BME280;59263;48.160;11.752;2023-04-16T03:56:50;95721.44;;;5.55;100.00
71457;BME280;59263;48.160;11.752;2023-04-16T03:59:16;95740.81;;;5.59;100.00
71457;BME280;59263;48.160;11.752;2023-04-16T04:01:42;95739.41;;;5.55;100.00
71457;BME280;59263;48.160;11.752;2023-04-16T04:04:07;95741.16;;;5.55;100.00
71457;BME280;59263;48.160;11.752;2023-04-16T04:06:33;95748.47;;;5.48;100.00
71457;BME280;59263;48.160;11.752;2023-04-16T04:08:58;95737.50;;;5.35;100.00
71457;BME280;59263;48.160;11.752;2023-04-16T04:11:24;95751.19;;;5.58;100.00
71457;BME280;59263;48.160;11.752;2023-04-16T04:13:50;95758.91;;;5.58;100.00
71457;BME280;59263;48.160;11.752;2023-04-16T04:16:15;95747.56;;;5.49;100.00
71457;BME280;59263;48.160;11.752;2023-04-16T04:18:40;95734.13;;;5.34;100.00
71457;BME280;59263;48.160;11.752;2023-04-16T04:21:07;95756.19;;;5.48;100.00
71457;BME280;59263;48.160;11.752;2023-04-16T04:23:33;95747.00;;;5.57;100.00
71457;BME280;59263;48.160;11.752;2023-04-16T04:25:58;95741.28;;;5.53;100.00
71457;BME280;59263;48.160;11.752;2023-04-16T04:28:24;95744.31;;;5.58;100.00
71457;BME280;59263;48.160;11.752;2023-04-16T04:30:49;95739.41;;;5.55;100.00
71457;BME280;59263;48.160;11.752;2023-04-16T04:33:14;95759.72;;;5.58;100.00
71457;BME280;59263;48.160;11.752;2023-04-16T04:35:40;95751.44;;;5.66;100.00
71457;BME280;59263;48.160;11.752;2023-04-16T04:38:05;95755.53;;;5.69;100.00
71457;BME280;59263;48.160;11.752;2023-04-16T04:40:30;95757.75;;;5.73;100.00
71457;BME280;59263;48.160;11.752;2023-04-16T04:42:56;95758.56;;;5.74;100.00
71457;BME280;59263;48.160;11.752;2023-04-16T04:45:21;95753.78;;;5.80;100.00
71457;BME280;59263;48.160;11.752;2023-04-16T04:47:52;95746.66;;;5.73;100.00
71457;BME280;59263;48.160;11.752;2023-04-16T04:50:17;95759.28;;;5.76;100.00
71457;BME280;59263;48.160;11.752;2023-04-16T04:52:43;95755.97;;;5.63;100.00
71457;BME280;59263;48.160;11.752;2023-04-16T04:55:08;95771.88;;;5.79;100.00
71457;BME280;59263;48.160;11.752;2023-04-16T04:57:33;95776.22;;;5.78;100.00
71457;BME280;59263;48.160;11.752;2023-04-16T04:59:59;95779.56;;;5.68;100.00
71457;BME280;59263;48.160;11.752;2023-04-16T05:02:27;95784.00;;;5.77;100.00
71457;BME280;59263;48.160;11.752;2023-04-16T05:04:52;95783.19;;;5.76;100.00
71457;BME280;59263;48.160;11.752;2023-04-16T05:07:17;95780.03;;;5.73;100.00
71457;BME280;59263;48.160;11.752;2023-04-16T05:09:43;95789.16;;;5.77;100.00
71457;BME280;59263;48.160;11.752;2023-04-16T05:12:08;95781.44;;;5.66;100.00
71457;BME280;59263;48.160;11.752;2023-04-16T05:14:33;95781.44;;;5.66;100.00
71457;BME280;59263;48.160;11.752;2023-04-16T05:17:00;95791.47;;;5.69;100.00
71457;BME280;59263;48.160;11.752;2023-04-16T05:19:25;95792.06;;;5.72;100.00
71457;BME280;59263;48.160;11.752;2023-04-16T05:21:51;95801.75;;;5.69;100.00
71457;BME280;59263;48.160;11.752;2023-04-16T05:24:16;95808.72;;;5.67;100.00
71457;BME280;59263;48.160;11.752;2023-04-16T05:26:41;95805.25;;;5.68;100.00
71457;BME280;59263;48.160;11.752;2023-04-16T05:29:07;95807.69;;;5.69;100.00
71457;BME280;59263;48.160;11.752;2023-04-16T05:31:32;95807.34;;;5.85;100.00
71457;BME280;59263;48.160;11.752;2023-04-16T05:33:57;95804.09;;;5.83;100.00
71457;BME280;59263;48.160;11.752;2023-04-16T05:36:22;95808.75;;;5.89;100.00
71457;BME280;59263;48.160;11.752;2023-04-16T05:38:48;95811.38;;;6.00;100.00
71457;BME280;59263;48.160;11.752;2023-04-16T05:41:13;95799.94;;;5.93;100.00
71457;BME280;59263;48.160;11.752;2023-04-16T05:43:38;95809.38;;;5.93;100.00
71457;BME280;59263;48.160;11.752;2023-04-16T05:46:03;95814.88;;;5.99;100.00
71457;BME280;59263;48.160;11.752;2023-04-16T05:48:29;95821.44;;;6.15;100.00
71457;BME280;59263;48.160;11.752;2023-04-16T05:50:55;95816.53;;;6.12;100.00
71457;BME280;59263;48.160;11.752;2023-04-16T05:53:20;95824.47;;;6.09;100.00
71457;BME280;59263;48.160;11.752;2023-04-16T05:55:45;95819.44;;;6.18;100.00
71457;BME280;59263;48.160;11.752;2023-04-16T05:58:11;95813.41;;;6.19;100.00
71457;BME280;59263;48.160;11.752;2023-04-16T06:00:36;95813.03;;;6.13;100.00
71457;BME280;59263;48.160;11.752;2023-04-16T06:03:01;95833.59;;;6.24;100.00
71457;BME280;59263;48.160;11.752;2023-04-16T06:05:27;95837.44;;;6.29;100.00
71457;BME280;59263;48.160;11.752;2023-04-16T06:07:53;95822.38;;;6.25;100.00
71457;BME280;59263;48.160;11.752;2023-04-16T06:10:18;95817.69;;;6.30;100.00
71457;BME280;59263;48.160;11.752;2023-04-16T06:12:43;95834.53;;;6.45;100.00
71457;BME280;59263;48.160;11.752;2023-04-16T06:15:09;95838.50;;;6.49;100.00
71457;BME280;59263;48.160;11.752;2023-04-16T06:17:35;95841.66;;;6.64;100.00
71457;BME280;59263;48.160;11.752;2023-04-16T06:20:00;95843.72;;;6.70;100.00
71457;BME280;59263;48.160;11.752;2023-04-16T06:22:25;95842.25;;;6.68;100.00
71457;BME280;59263;48.160;11.752;2023-04-16T06:24:52;95843.41;;;6.75;100.00
71457;BME280;59263;48.160;11.752;2023-04-16T06:27:17;95843.50;;;6.73;100.00
71457;BME280;59263;48.160;11.752;2023-04-16T06:29:42;95825.75;;;6.70;100.00
71457;BME280;59263;48.160;11.752;2023-04-16T06:32:08;95849.91;;;6.90;100.00
71457;BME280;59263;48.160;11.752;2023-04-16T06:34:33;95820.38;;;6.73;100.00
71457;BME280;59263;48.160;11.752;2023-04-16T06:36:59;95840.31;;;6.92;100.00
71457;BME280;59263;48.160;11.752;2023-04-16T06:39:25;95847.16;;;7.14;100.00
71457;BME280;59263;48.160;11.752;2023-04-16T06:41:50;95861.19;;;7.21;100.00
71457;BME280;59263;48.160;11.752;2023-04-16T06:44:19;95851.94;;;7.19;100.00
71457;BME280;59263;48.160;11.752;2023-04-16T06:46:44;95863.84;;;7.31;100.00
71457;BME280;59263;48.160;11.752;2023-04-16T06:49:09;95851.38;;;7.15;100.00
71457;BME280;59263;48.160;11.752;2023-04-16T06:51:35;95810.53;;;6.90;100.00
71457;BME280;59263;48.160;11.752;2023-04-16T06:54:00;95862.22;;;7.19;100.00
71457;BME280;59263;48.160;11.752;2023-04-16T06:56:26;95848.81;;;7.04;100.00
71457;BME280;59263;48.160;11.752;2023-04-16T06:58:52;95831.31;;;6.98;100.00
71457;BME280;59263;48.160;11.752;2023-04-16T07:01:17;95868.78;;;7.23;100.00
71457;BME280;59263;48.160;11.752;2023-04-16T07:03:45;95837.28;;;6.98;100.00
71457;BME280;59263;48.160;11.752;2023-04-16T07:06:11;95819.97;;;6.89;100.00
71457;BME280;59263;48.160;11.752;2023-04-16T07:08:36;95799.19;;;6.81;100.00
71457;BME280;59263;48.160;11.752;2023-04-16T07:11:04;95818.78;;;6.93;100.00
71457;BME280;59263;48.160;11.752;2023-04-16T07:13:32;95862.22;;;7.19;100.00
71457;BME280;59263;48.160;11.752;2023-04-16T07:15:57;95843.59;;;6.94;100.00
71457;BME280;59263;48.160;11.752;2023-04-16T07:18:23;95870.66;;;7.21;100.00
71457;BME280;59263;48.160;11.752;2023-04-16T07:20:51;95843.69;;;7.04;100.00
71457;BME280;59263;48.160;11.752;2023-04-16T07:23:16;95811.06;;;6.93;100.00
71457;BME280;59263;48.160;11.752;2023-04-16T07:25:42;95845.41;;;7.15;100.00
71457;BME280;59263;48.160;11.752;2023-04-16T07:28:09;95842.03;;;7.14;100.00
71457;BME280;59263;48.160;11.752;2023-04-16T07:30:35;95840.94;;;7.28;100.00
71457;BME280;59263;48.160;11.752;2023-04-16T07:33:03;95866.59;;;7.50;100.00
71457;BME280;59263;48.160;11.752;2023-04-16T07:35:30;95833.66;;;7.33;100.00
71457;BME280;59263;48.160;11.752;2023-04-16T07:37:58;95869.38;;;7.59;100.00
71457;BME280;59263;48.160;11.752;2023-04-16T07:40:23;95870.19;;;7.59;100.00
71457;BME280;59263;48.160;11.752;2023-04-16T07:42:49;95831.53;;;7.38;100.00
71457;BME280;59263;48.160;11.752;2023-04-16T07:45:16;95844.38;;;7.49;100.00
71457;BME280;59263;48.160;11.752;2023-04-16T07:47:42;95855.75;;;7.68;100.00
71457;BME280;59263;48.160;11.752;2023-04-16T07:50:08;95855.06;;;7.66;100.00
71457;BME280;59263;48.160;11.752;2023-04-16T07:52:33;95834.28;;;7.58;100.00
71457;BME280;59263;48.160;11.752;2023-04-16T07:54:59;95880.47;;;7.91;100.00
71457;BME280;59263;48.160;11.752;2023-04-16T07:57:24;95864.63;;;7.75;100.00
71457;BME280;59263;48.160;11.752;2023-04-16T07:59:49;95845.56;;;7.66;100.00
71457;BME280;59263;48.160;11.752;2023-04-16T08:02:15;95851.19;;;7.71;100.00
71457;BME280;59263;48.160;11.752;2023-04-16T08:04:41;95890.28;;;7.97;100.00
71457;BME280;59263;48.160;11.752;2023-04-16T08:07:07;95851.84;;;7.73;100.00
71457;BME280;59263;48.160;11.752;2023-04-16T08:09:32;95837.47;;;7.71;100.00
71457;BME280;59263;48.160;11.752;2023-04-16T08:12:00;95876.19;;;8.02;100.00
71457;BME280;59263;48.160;11.752;2023-04-16T08:14:25;95846.66;;;7.85;100.00
71457;BME280;59263;48.160;11.752;2023-04-16T08:16:51;95857.28;;;7.91;100.00
71457;BME280;59263;48.160;11.752;2023-04-16T08:19:22;95857.47;;;7.99;100.00
71457;BME280;59263;48.160;11.752;2023-04-16T08:21:47;95909.94;;;8.40;100.00
71457;BME280;59263;48.160;11.752;2023-04-16T08:24:13;95893.53;;;8.41;100.00
71457;BME280;59263;48.160;11.752;2023-04-16T08:26:38;95904.72;;;8.52;100.00
71457;BME280;59263;48.160;11.752;2023-04-16T08:29:03;95896.03;;;8.53;100.00
71457;BME280;59263;48.160;11.752;2023-04-16T08:31:29;95903.69;;;8.64;100.00
71457;BME280;59263;48.160;11.752;2023-04-16T08:33:54;95893.13;;;8.67;100.00
71457;BME280;59263;48.160;11.752;2023-04-16T08:36:20;95864.00;;;8.45;100.00
71457;BME280;59263;48.160;11.752;2023-04-16T08:38:45;95906.13;;;8.86;100.00
71457;BME280;59263;48.160;11.752;2023-04-16T08:41:12;95886.41;;;8.85;100.00
71457;BME280;59263;48.160;11.752;2023-04-16T08:43:38;95905.47;;;9.04;100.00
71457;BME280;59263;48.160;11.752;2023-04-16T08:46:10;95913.00;;;9.16;100.00
71457;BME280;59263;48.160;11.752;2023-04-16T08:48:36;95894.22;;;9.14;100.00
71457;BME280;59263;48.160;11.752;2023-04-16T08:51:03;95896.41;;;9.19;100.00
71457;BME280;59263;48.160;11.752;2023-04-16T08:53:47;95886.50;;;9.14;100.00
71457;BME280;59263;48.160;11.752;2023-04-16T08:56:13;95913.16;;;9.34;100.00
71457;BME280;59263;48.160;11.752;2023-04-16T08:58:40;95879.44;;;9.26;100.00
71457;BME280;59263;48.160;11.752;2023-04-16T09:01:05;95904.06;;;9.40;100.00
71457;BME280;59263;48.160;11.752;2023-04-16T09:03:33;95914.81;;;9.55;100.00
71457;BME280;59263;48.160;11.752;2023-04-16T09:05:59;95897.69;;;9.44;100.00
71457;BME280;59263;48.160;11.752;2023-04-16T09:08:28;95919.47;;;9.61;100.00
71457;BME280;59263;48.160;11.752;2023-04-16T09:10:55;95924.50;;;9.72;100.00
71457;BME280;59263;48.160;11.752;2023-04-16T09:13:21;95922.06;;;9.80;100.00
71457;BME280;59263;48.160;11.752;2023-04-16T09:15:53;95901.25;;;9.72;100.00
71457;BME280;59263;48.160;11.752;2023-04-16T09:18:19;95932.00;;;9.94;100.00
71457;BME280;59263;48.160;11.752;2023-04-16T09:20:46;95909.97;;;9.90;100.00
71457;BME280;59263;48.160;11.752;2023-04-16T09:23:12;95918.13;;;9.96;100.00
71457;BME280;59263;48.160;11.752;2023-04-16T09:25:38;95914.16;;;9.91;100.00
71457;BME280;59263;48.160;11.752;2023-04-16T09:28:04;95922.75;;;10.02;100.00
71457;BME280;59263;48.160;11.752;2023-04-16T09:30:29;95884.91;;;9.81;100.00
71457;BME280;59263;48.160;11.752;2023-04-16T09:33:21;95889.69;;;9.96;100.00
71457;BME280;59263;48.160;11.752;2023-04-16T09:35:51;95923.25;;;10.34;100.00
71457;BME280;59263;48.160;11.752;2023-04-16T09:38:18;95926.38;;;10.48;100.00
71457;BME280;59263;48.160;11.752;2023-04-16T09:40:44;95887.84;;;10.45;100.00
71457;BME280;59263;48.160;11.752;2023-04-16T09:45:52;95908.25;;;10.95;100.00
71457;BME280;59263;48.160;11.752;2023-04-16T09:48:31;95902.28;;;10.84;100.00
71457;BME280;59263;48.160;11.752;2023-04-16T09:50:57;95900.69;;;10.83;100.00
71457;BME280;59263;48.160;11.752;2023-04-16T09:53:28;95916.16;;;10.93;100.00
71457;BME280;59263;48.160;11.752;2023-04-16T09:56:02;95901.06;;;10.88;100.00
71457;BME280;59263;48.160;11.752;2023-04-16T09:58:28;95913.03;;;10.89;100.00
71457;BME280;59263;48.160;11.752;2023-04-16T10:01:09;95905.97;;;10.82;100.00
71457;BME280;59263;48.160;11.752;2023-04-16T10:03:36;95923.09;;;10.93;100.00
71457;BME280;59263;48.160;11.752;2023-04-16T10:06:16;95908.16;;;10.86;100.00
71457;BME280;59263;48.160;11.752;2023-04-16T10:08:48;95915.50;;;10.91;100.00
71457;BME280;59263;48.160;11.752;2023-04-16T10:11:15;95883.38;;;10.84;100.00
71457;BME280;59263;48.160;11.752;2023-04-16T10:13:40;95890.78;;;10.97;100.00
71457;BME280;59263;48.160;11.752;2023-04-16T10:16:09;95876.59;;;10.73;100.00
71457;BME280;59263;48.160;11.752;2023-04-16T10:18:43;95890.25;;;10.65;100.00
71457;BME280;59263;48.160;11.752;2023-04-16T10:21:09;95868.72;;;10.65;100.00
71457;BME280;59263;48.160;11.752;2023-04-16T10:23:39;95904.88;;;10.84;100.00
71457;BME280;59263;48.160;11.752;2023-04-16T10:26:05;95881.25;;;10.60;100.00
71457;BME280;59263;48.160;11.752;2023-04-16T10:28:31;95868.84;;;10.73;100.00
71457;BME280;59263;48.160;11.752;2023-04-16T10:31:05;95888.25;;;10.87;100.00
71457;BME280;59263;48.160;11.752;2023-04-16T10:33:40;95887.72;;;11.38;100.00
71457;BME280;59263;48.160;11.752;2023-04-16T10:36:17;95895.56;;;11.47;100.00
71457;BME280;59263;48.160;11.752;2023-04-16T10:38:48;95908.03;;;11.61;100.00
71457;BME280;59263;48.160;11.752;2023-04-16T10:41:14;95909.41;;;11.55;100.00
71457;BME280;59263;48.160;11.752;2023-04-16T10:46:19;95912.41;;;11.33;100.00
71457;BME280;59263;48.160;11.752;2023-04-16T10:48:46;95922.69;;;11.25;100.00
71457;BME280;59263;48.160;11.752;2023-04-16T10:51:33;95929.56;;;11.16;100.00
71457;BME280;59263;48.160;11.752;2023-04-16T10:56:33;95891.88;;;10.66;100.00
71457;BME280;59263;48.160;11.752;2023-04-16T10:58:58;95912.31;;;10.60;100.00
71457;BME280;59263;48.160;11.752;2023-04-16T11:01:41;95915.75;;;10.51;100.00
71457;BME280;59263;48.160;11.752;2023-04-16T11:07:18;95920.13;;;10.21;100.00
71457;BME280;59263;48.160;11.752;2023-04-16T11:12:20;95922.06;;;10.09;100.00
71457;BME280;59263;48.160;11.752;2023-04-16T11:14:48;95926.41;;;10.09;100.00
71457;BME280;59263;48.160;11.752;2023-04-16T11:17:14;95950.91;;;10.24;100.00
71457;BME280;59263;48.160;11.752;2023-04-16T11:19:41;95945.59;;;10.16;100.00
71457;BME280;59263;48.160;11.752;2023-04-16T11:22:07;95914.28;;;10.00;100.00
71457;BME280;59263;48.160;11.752;2023-04-16T11:24:33;95910.22;;;10.07;100.00
71457;BME280;59263;48.160;11.752;2023-04-16T11:27:00;95954.59;;;10.31;100.00
71457;BME280;59263;48.160;11.752;2023-04-16T11:29:26;95936.63;;;10.39;100.00
71457;BME280;59263;48.160;11.752;2023-04-16T11:31:52;95918.94;;;10.35;100.00
71457;BME280;59263;48.160;11.752;2023-04-16T11:34:18;95918.06;;;10.54;100.00
71457;BME280;59263;48.160;11.752;2023-04-16T11:36:55;95919.16;;;10.61;100.00
71457;BME280;59263;48.160;11.752;2023-04-16T11:39:23;95902.81;;;10.51;100.00
71457;BME280;59263;48.160;11.752;2023-04-16T11:41:51;95922.00;;;10.58;100.00
71457;BME280;59263;48.160;11.752;2023-04-16T11:44:25;95895.66;;;10.25;100.00
71457;BME280;59263;48.160;11.752;2023-04-16T11:46:54;95928.16;;;10.37;100.00
71457;BME280;59263;48.160;11.752;2023-04-16T11:49:36;95925.97;;;10.23;100.00
71457;BME280;59263;48.160;11.752;2023-04-16T11:52:04;95901.09;;;10.03;100.00
71457;BME280;59263;48.160;11.752;2023-04-16T11:54:30;95927.09;;;10.11;100.00
71457;BME280;59263;48.160;11.752;2023-04-16T11:57:08;95943.94;;;10.15;100.00
71457;BME280;59263;48.160;11.752;2023-04-16T11:59:44;95932.00;;;9.94;100.00
71457;BME280;59263;48.160;11.752;2023-04-16T12:02:11;95965.75;;;10.12;100.00
71457;BME280;59263;48.160;11.752;2023-04-16T12:04:36;95912.69;;;9.79;100.00
71457;BME280;59263;48.160;11.752;2023-04-16T12:18:08;95948.72;;;9.90;100.00
71457;BME280;59263;48.160;11.752;2023-04-16T12:20:39;95946.09;;;9.71;100.00
71457;BME280;59263;48.160;11.752;2023-04-16T12:23:05;95973.72;;;9.90;100.00
71457;BME280;59263;48.160;11.752;2023-04-16T12:25:32;95928.16;;;9.60;100.00
71457;BME280;59263;48.160;11.752;2023-04-16T12:27:57;95974.56;;;9.81;100.00
71457;BME280;59263;48.160;11.752;2023-04-16T12:30:24;95975.25;;;9.83;100.00
71457;BME280;59263;48.160;11.752;2023-04-16T12:33:22;95919.84;;;9.56;100.00
71457;BME280;59263;48.160;11.752;2023-04-16T12:35:48;95976.59;;;9.97;100.00
71457;BME280;59263;48.160;11.752;2023-04-16T12:38:14;95918.91;;;9.67;100.00
71457;BME280;59263;48.160;11.752;2023-04-16T12:41:08;95971.69;;;9.93;100.00
71457;BME280;59263;48.160;11.752;2023-04-16T12:43:35;95938.78;;;9.76;100.00
71457;BME280;59263;48.160;11.752;2023-04-16T12:46:00;95962.31;;;9.92;100.00
71457;BME280;59263;48.160;11.752;2023-04-16T12:48:26;95947.88;;;9.90;100.00
71457;BME280;59263;48.160;11.752;2023-04-16T12:50:53;95964.09;;;10.02;100.00
71457;BME280;59263;48.160;11.752;2023-04-16T12:53:18;95947.38;;;10.06;100.00
71457;BME280;59263;48.160;11.752;2023-04-16T12:55:43;95979.09;;;10.37;100.00
71457;BME280;59263;48.160;11.752;2023-04-16T12:58:09;95928.59;;;10.04;100.00
71457;BME280;59263;48.160;11.752;2023-04-16T13:00:34;95962.47;;;10.30;100.00
71457;BME280;59263;48.160;11.752;2023-04-16T13:03:00;95966.81;;;10.58;100.00
71457;BME280;59263;48.160;11.752;2023-04-16T13:05:25;95962.16;;;10.62;100.00
71457;BME280;59263;48.160;11.752;2023-04-16T13:07:51;95944.72;;;10.64;100.00
71457;BME280;59263;48.160;11.752;2023-04-16T13:10:16;95945.28;;;10.58;100.00